Nichiryu Maru — JG5632 — position and weather

sailwx.info

Track history (hours):
 
Tides and Currents Weather Stations Pressure Air Temp Water Temp Dewpoint Dewpoint Depression Visibility Wind Speed Wind Dir Waves Ship Positions

Nichiryu Maru

Last reported at 2017-Sep-22 02:00 UTC. Time now 2017-Sep-22 10:18 UTC.
Position N 34°11' E 134°60'.

Length 158 m; draft 6.5 m.

Type: Cargo ship. MMSI: 43100939.

Date/timePositionNaut miles runAvg speedWind from/ knotsBaromVisibWave heightAir tempDewpointWater temp
2017-Sep-22 02:00N 34°11' E 134°60'1020.0
2017-Sep-22 01:30N 34°00' E 135°00'22316.8
2017-Sep-21 12:13N 34°51' E 139°23'417.6
2017-Sep-21 12:00N 34°54' E 139°27'918.6
2017-Sep-21 11:30N 34°60' E 139°35'1019.3
2017-Sep-21 11:00N 35°07' E 139°43'815.6
2017-Sep-21 10:30N 35°14' E 139°46'611.8
2017-Sep-21 10:01N 35°19' E 139°42'2 4.1
2017-Sep-21 09:24N 35°19' E 139°39'0 0.0
2017-Sep-21 09:00N 35°19' E 139°39'0 0.0
2017-Sep-21 08:30N 35°19' E 139°39'0 0.0
2017-Sep-21 08:00N 35°19' E 139°39'0 0.0
2017-Sep-21 07:30N 35°19' E 139°39'0 0.0
2017-Sep-21 07:00N 35°19' E 139°39'0 0.0
2017-Sep-21 06:30N 35°19' E 139°39'0 0.0
2017-Sep-21 05:57N 35°19' E 139°39'0 0.0
2017-Sep-21 05:30N 35°19' E 139°39'0 0.0
2017-Sep-21 04:57N 35°19' E 139°39'0 0.0
2017-Sep-21 04:27N 35°19' E 139°39'0 0.0
2017-Sep-21 04:00N 35°19' E 139°39'0 0.3
2017-Sep-21 03:30N 35°19' E 139°39'510.6
2017-Sep-21 03:01N 35°17' E 139°45'612.5
2017-Sep-21 02:30N 35°11' E 139°46'917.5
2017-Sep-21 02:00N 35°03' E 139°43'917.9
2017-Sep-21 01:30N 34°55' E 139°36'1217.1
2017-Sep-21 00:48N 34°50' E 139°23'220 5.2
2017-Sep-19 06:19N 34°37' E 134°56'516.3
2017-Sep-19 06:00N 34°37' E 135°02'816.6
2017-Sep-19 05:30N 34°36' E 135°12'5 9.7
2017-Sep-19 05:01N 34°41' E 135°14'0 0.3
2017-Sep-19 03:52N 34°41' E 135°13'0 0.0
2017-Sep-19 03:28N 34°41' E 135°13'0 0.0
2017-Sep-19 02:58N 34°41' E 135°13'0 0.0
2017-Sep-19 02:28N 34°41' E 135°13'0 0.0
2017-Sep-19 01:58N 34°41' E 135°13'0 0.0
2017-Sep-19 01:28N 34°41' E 135°13'0 0.0
2017-Sep-19 00:58N 34°41' E 135°13'0 0.0
2017-Sep-19 00:28N 34°41' E 135°13'0 0.0
2017-Sep-18 23:58N 34°41' E 135°13'0 0.0
2017-Sep-18 23:22N 34°41' E 135°13'0 0.0
2017-Sep-18 22:58N 34°41' E 135°13'2 4.3
2017-Sep-18 22:29N 34°39' E 135°16'3 5.1
2017-Sep-18 21:54N 34°37' E 135°16'0 0.0
2017-Sep-18 21:24N 34°37' E 135°16'0 0.0
2017-Sep-18 20:54N 34°37' E 135°16'0 0.0
2017-Sep-18 20:30N 34°37' E 135°16'0 0.0
2017-Sep-18 20:00N 34°37' E 135°16'0 0.0
2017-Sep-18 19:30N 34°37' E 135°16'0 0.0
2017-Sep-18 19:00N 34°37' E 135°16'0 0.0
2017-Sep-18 18:30N 34°37' E 135°16'0 0.0
2017-Sep-18 18:00N 34°37' E 135°16'0 0.0
2017-Sep-18 17:30N 34°37' E 135°16'0 0.0
2017-Sep-18 17:00N 34°37' E 135°16'0 0.0
2017-Sep-18 16:30N 34°37' E 135°16'0 0.0
2017-Sep-18 15:48N 34°37' E 135°16'0 0.0
2017-Sep-18 15:30N 34°37' E 135°16'0 0.0
2017-Sep-18 14:54N 34°37' E 135°16'0 0.0
2017-Sep-18 14:30N 34°37' E 135°16'0 0.0
2017-Sep-18 14:00N 34°37' E 135°16'0 0.0
2017-Sep-18 13:30N 34°37' E 135°16'0 0.0
2017-Sep-18 12:54N 34°37' E 135°16'1 3.3
2017-Sep-18 12:30N 34°36' E 135°15'917.3
2017-Sep-18 12:00N 34°35' E 135°04'815.3
2017-Sep-18 11:28N 34°35' E 134°54'  
2017-Sep-15 08:49N 34°35' E 134°51'721.6
2017-Sep-15 08:30N 34°37' E 134°59'1019.9
2017-Sep-15 08:00N 34°36' E 135°11'510.7
2017-Sep-15 07:31N 34°40' E 135°15'1 1.8
2017-Sep-15 06:58N 34°41' E 135°13'0 0.0
2017-Sep-15 06:28N 34°41' E 135°13'0 0.0
2017-Sep-15 05:52N 34°41' E 135°13'0 0.0
2017-Sep-15 05:28N 34°41' E 135°13'0 0.0
2017-Sep-15 04:58N 34°41' E 135°13'0 0.0
2017-Sep-15 04:30N 34°41' E 135°13'2 4.6
2017-Sep-15 04:00N 34°39' E 135°16'917.0
2017-Sep-15 03:30N 34°31' E 135°13'1019.3
2017-Sep-15 03:00N 34°24' E 135°05'918.1
2017-Sep-15 02:30N 34°16' E 134°59'917.4
2017-Sep-15 02:00N 34°07' E 134°59'22315.8
2017-Sep-14 11:50N 34°52' E 139°25'617.6
2017-Sep-14 11:30N 34°56' E 139°30'918.6
2017-Sep-14 11:00N 35°02' E 139°38'918.7
2017-Sep-14 10:30N 35°09' E 139°45'714.0
2017-Sep-14 10:00N 35°16' E 139°46'611.7
2017-Sep-14 09:30N 35°19' E 139°39'0 0.1
2017-Sep-14 08:58N 35°19' E 139°39'0 0.0
2017-Sep-14 08:28N 35°19' E 139°39'0 0.0
2017-Sep-14 07:58N 35°19' E 139°39'0 0.0
2017-Sep-14 07:28N 35°19' E 139°39'0 0.0
2017-Sep-14 06:55N 35°19' E 139°39'0 0.0
2017-Sep-14 06:25N 35°19' E 139°39'0 0.0
2017-Sep-14 05:58N 35°19' E 139°39'0 0.0
2017-Sep-14 05:25N 35°19' E 139°39'0 0.0
2017-Sep-14 04:58N 35°19' E 139°39'0 0.0
2017-Sep-14 04:25N 35°19' E 139°39'0 0.0
2017-Sep-14 03:58N 35°19' E 139°39'0 0.2
2017-Sep-14 03:31N 35°19' E 139°39'510.8
2017-Sep-14 03:00N 35°17' E 139°45'713.1
2017-Sep-14 02:31N 35°11' E 139°47'917.8
2017-Sep-14 02:01N 35°02' E 139°43'917.7
2017-Sep-14 01:30N 34°54' E 139°39'915.5
2017-Sep-14 00:57N 34°51' E 139°29'  
Track history (hours):
 
Tides and Currents Weather Stations Pressure Air Temp Water Temp Dewpoint Dewpoint Depression Visibility Wind Speed Wind Dir Waves Ship Positions

Nichiryu Maru

Last reported at 2017-Sep-22 02:00 UTC. Time now 2017-Sep-22 10:18 UTC.
Position N 34°11' E 134°60'.

Length 158 m; draft 6.5 m.

Type: Cargo ship. MMSI: 43100939.

Date/timePositionNaut miles runAvg speedWind from/ knotsBaromVisibWave heightAir tempDewpointWater temp
2017-Sep-22 02:00N 34°11' E 134°60'1020.0
2017-Sep-22 01:30N 34°00' E 135°00'22316.8
2017-Sep-21 12:13N 34°51' E 139°23'417.6
2017-Sep-21 12:00N 34°54' E 139°27'918.6
2017-Sep-21 11:30N 34°60' E 139°35'1019.3
2017-Sep-21 11:00N 35°07' E 139°43'815.6
2017-Sep-21 10:30N 35°14' E 139°46'611.8
2017-Sep-21 10:01N 35°19' E 139°42'2 4.1
2017-Sep-21 09:24N 35°19' E 139°39'0 0.0
2017-Sep-21 09:00N 35°19' E 139°39'0 0.0
2017-Sep-21 08:30N 35°19' E 139°39'0 0.0
2017-Sep-21 08:00N 35°19' E 139°39'0 0.0
2017-Sep-21 07:30N 35°19' E 139°39'0 0.0
2017-Sep-21 07:00N 35°19' E 139°39'0 0.0
2017-Sep-21 06:30N 35°19' E 139°39'0 0.0
2017-Sep-21 05:57N 35°19' E 139°39'0 0.0
2017-Sep-21 05:30N 35°19' E 139°39'0 0.0
2017-Sep-21 04:57N 35°19' E 139°39'0 0.0
2017-Sep-21 04:27N 35°19' E 139°39'0 0.0
2017-Sep-21 04:00N 35°19' E 139°39'0 0.3
2017-Sep-21 03:30N 35°19' E 139°39'510.6
2017-Sep-21 03:01N 35°17' E 139°45'612.5
2017-Sep-21 02:30N 35°11' E 139°46'917.5
2017-Sep-21 02:00N 35°03' E 139°43'917.9
2017-Sep-21 01:30N 34°55' E 139°36'1217.1
2017-Sep-21 00:48N 34°50' E 139°23'220 5.2
2017-Sep-19 06:19N 34°37' E 134°56'516.3
2017-Sep-19 06:00N 34°37' E 135°02'816.6
2017-Sep-19 05:30N 34°36' E 135°12'5 9.7
2017-Sep-19 05:01N 34°41' E 135°14'0 0.3
2017-Sep-19 03:52N 34°41' E 135°13'0 0.0
2017-Sep-19 03:28N 34°41' E 135°13'0 0.0
2017-Sep-19 02:58N 34°41' E 135°13'0 0.0
2017-Sep-19 02:28N 34°41' E 135°13'0 0.0
2017-Sep-19 01:58N 34°41' E 135°13'0 0.0
2017-Sep-19 01:28N 34°41' E 135°13'0 0.0
2017-Sep-19 00:58N 34°41' E 135°13'0 0.0
2017-Sep-19 00:28N 34°41' E 135°13'0 0.0
2017-Sep-18 23:58N 34°41' E 135°13'0 0.0
2017-Sep-18 23:22N 34°41' E 135°13'0 0.0
2017-Sep-18 22:58N 34°41' E 135°13'2 4.3
2017-Sep-18 22:29N 34°39' E 135°16'3 5.1
2017-Sep-18 21:54N 34°37' E 135°16'0 0.0
2017-Sep-18 21:24N 34°37' E 135°16'0 0.0
2017-Sep-18 20:54N 34°37' E 135°16'0 0.0
2017-Sep-18 20:30N 34°37' E 135°16'0 0.0
2017-Sep-18 20:00N 34°37' E 135°16'0 0.0
2017-Sep-18 19:30N 34°37' E 135°16'0 0.0
2017-Sep-18 19:00N 34°37' E 135°16'0 0.0
2017-Sep-18 18:30N 34°37' E 135°16'0 0.0
2017-Sep-18 18:00N 34°37' E 135°16'0 0.0
2017-Sep-18 17:30N 34°37' E 135°16'0 0.0
2017-Sep-18 17:00N 34°37' E 135°16'0 0.0
2017-Sep-18 16:30N 34°37' E 135°16'0 0.0
2017-Sep-18 15:48N 34°37' E 135°16'0 0.0
2017-Sep-18 15:30N 34°37' E 135°16'0 0.0
2017-Sep-18 14:54N 34°37' E 135°16'0 0.0
2017-Sep-18 14:30N 34°37' E 135°16'0 0.0
2017-Sep-18 14:00N 34°37' E 135°16'0 0.0
2017-Sep-18 13:30N 34°37' E 135°16'0 0.0
2017-Sep-18 12:54N 34°37' E 135°16'1 3.3
2017-Sep-18 12:30N 34°36' E 135°15'917.3
2017-Sep-18 12:00N 34°35' E 135°04'815.3
2017-Sep-18 11:28N 34°35' E 134°54'  
2017-Sep-15 08:49N 34°35' E 134°51'721.6
2017-Sep-15 08:30N 34°37' E 134°59'1019.9
2017-Sep-15 08:00N 34°36' E 135°11'510.7
2017-Sep-15 07:31N 34°40' E 135°15'1 1.8
2017-Sep-15 06:58N 34°41' E 135°13'0 0.0
2017-Sep-15 06:28N 34°41' E 135°13'0 0.0
2017-Sep-15 05:52N 34°41' E 135°13'0 0.0
2017-Sep-15 05:28N 34°41' E 135°13'0 0.0
2017-Sep-15 04:58N 34°41' E 135°13'0 0.0
2017-Sep-15 04:30N 34°41' E 135°13'2 4.6
2017-Sep-15 04:00N 34°39' E 135°16'917.0
2017-Sep-15 03:30N 34°31' E 135°13'1019.3
2017-Sep-15 03:00N 34°24' E 135°05'918.1
2017-Sep-15 02:30N 34°16' E 134°59'917.4
2017-Sep-15 02:00N 34°07' E 134°59'22315.8
2017-Sep-14 11:50N 34°52' E 139°25'617.6
2017-Sep-14 11:30N 34°56' E 139°30'918.6
2017-Sep-14 11:00N 35°02' E 139°38'918.7
2017-Sep-14 10:30N 35°09' E 139°45'714.0
2017-Sep-14 10:00N 35°16' E 139°46'611.7
2017-Sep-14 09:30N 35°19' E 139°39'0 0.1
2017-Sep-14 08:58N 35°19' E 139°39'0 0.0
2017-Sep-14 08:28N 35°19' E 139°39'0 0.0
2017-Sep-14 07:58N 35°19' E 139°39'0 0.0
2017-Sep-14 07:28N 35°19' E 139°39'0 0.0
2017-Sep-14 06:55N 35°19' E 139°39'0 0.0
2017-Sep-14 06:25N 35°19' E 139°39'0 0.0
2017-Sep-14 05:58N 35°19' E 139°39'0 0.0
2017-Sep-14 05:25N 35°19' E 139°39'0 0.0
2017-Sep-14 04:58N 35°19' E 139°39'0 0.0
2017-Sep-14 04:25N 35°19' E 139°39'0 0.0
2017-Sep-14 03:58N 35°19' E 139°39'0 0.2
2017-Sep-14 03:31N 35°19' E 139°39'510.8
2017-Sep-14 03:00N 35°17' E 139°45'713.1
2017-Sep-14 02:31N 35°11' E 139°47'917.8
2017-Sep-14 02:01N 35°02' E 139°43'917.7
2017-Sep-14 01:30N 34°54' E 139°39'915.5
2017-Sep-14 00:57N 34°51' E 139°29'  

Dump ship's entire track history